createdAt,value
2018-04-22T00:02:18.653Z,98121.27
2018-04-22T00:04:46.278Z,98120.09
2018-04-22T00:07:14.098Z,98113.35
2018-04-22T00:09:41.809Z,98115.43
2018-04-22T00:12:09.520Z,98115.58
2018-04-22T00:14:37.090Z,98112.26
2018-04-22T00:17:04.848Z,98106.86
2018-04-22T00:19:32.448Z,98103.95
2018-04-22T00:22:00.153Z,98098.90
2018-04-22T00:24:27.733Z,98103.25
2018-04-22T00:26:55.449Z,98095.17
2018-04-22T00:29:23.361Z,98103.72
2018-04-22T00:31:51.188Z,98099.10
2018-04-22T00:34:18.724Z,98097.10
2018-04-22T00:36:46.394Z,98096.34
2018-04-22T00:39:13.981Z,98095.37
2018-04-22T00:41:41.575Z,98092.11
2018-04-22T00:44:09.209Z,98088.80
2018-04-22T00:46:36.936Z,98088.19
2018-04-22T00:49:04.583Z,98082.30
2018-04-22T00:51:32.894Z,98085.39
2018-04-22T00:54:12.356Z,98083.11
2018-04-22T00:56:40.220Z,98082.48
2018-04-22T00:59:07.951Z,98076.20
2018-04-22T01:01:35.622Z,98076.73
2018-04-22T01:04:03.267Z,98074.19
2018-04-22T01:06:31.062Z,98072.80
2018-04-22T01:08:58.930Z,98068.27
2018-04-22T01:11:26.537Z,98070.27
2018-04-22T01:13:54.130Z,98065.14
2018-04-22T01:16:21.878Z,98065.05
2018-04-22T01:18:49.531Z,98066.63
2018-04-22T01:21:17.218Z,98060.77
2018-04-22T01:23:44.822Z,98061.05
2018-04-22T01:26:12.482Z,98060.31
2018-04-22T01:28:40.013Z,98065.60
2018-04-22T01:31:07.720Z,98064.44
2018-04-22T01:33:35.274Z,98064.48
2018-04-22T01:36:03.097Z,98064.94
2018-04-22T01:38:31.075Z,98061.19
2018-04-22T01:40:58.732Z,98068.04
2018-04-22T01:43:26.284Z,98065.89
2018-04-22T01:45:54.128Z,98063.39
2018-04-22T01:48:22.666Z,98056.55
2018-04-22T01:50:50.471Z,98057.48
2018-04-22T01:53:18.071Z,98066.20
2018-04-22T01:55:46.335Z,98062.55
2018-04-22T01:58:13.863Z,98062.14
2018-04-22T02:00:41.407Z,98062.36
2018-04-22T02:03:08.944Z,98059.00
2018-04-22T02:05:37.228Z,98058.11
2018-04-22T02:08:04.866Z,98057.70
2018-04-22T02:10:32.664Z,98052.07
2018-04-22T02:13:00.371Z,98054.28
2018-04-22T02:15:28.349Z,98056.35
2018-04-22T02:17:55.863Z,98057.70
2018-04-22T02:20:23.529Z,98055.22
2018-04-22T02:22:51.108Z,98055.28
2018-04-22T02:25:18.670Z,98056.97
2018-04-22T02:27:46.460Z,98050.16
2018-04-22T02:30:14.074Z,98052.45
2018-04-22T02:32:41.956Z,98053.30
2018-04-22T02:35:09.809Z,98055.78
2018-04-22T02:37:37.547Z,98050.37
2018-04-22T02:40:05.088Z,98044.97
2018-04-22T02:42:32.690Z,98047.50
2018-04-22T02:45:01.355Z,98049.80
2018-04-22T02:47:28.963Z,98046.38
2018-04-22T02:49:56.743Z,98049.87
2018-04-22T02:52:24.315Z,98042.30
2018-04-22T02:54:52.558Z,98050.09
2018-04-22T02:57:20.258Z,98047.08
2018-04-22T02:59:47.783Z,98046.98
2018-04-22T03:02:15.457Z,98044.55
2018-04-22T03:04:43.147Z,98042.20
2018-04-22T03:07:10.855Z,98033.80
2018-04-22T03:09:38.461Z,98028.70
2018-04-22T03:12:06.367Z,98025.33
2018-04-22T03:14:34.052Z,98036.15
2018-04-22T03:17:01.598Z,98023.92
2018-04-22T03:19:29.107Z,98026.77
2018-04-22T03:21:56.912Z,98026.58
2018-04-22T03:24:24.674Z,98022.39
2018-04-22T03:26:52.225Z,98015.08
2018-04-22T03:29:19.975Z,98022.49
2018-04-22T03:31:47.533Z,98016.69
2018-04-22T03:34:15.054Z,98016.52
2018-04-22T03:36:42.752Z,98012.89
2018-04-22T03:39:10.382Z,98006.00
2018-04-22T03:41:37.890Z,98007.93
2018-04-22T03:44:05.639Z,98007.13
2018-04-22T03:46:33.163Z,98004.94
2018-04-22T03:49:01.454Z,98008.41
2018-04-22T03:51:28.976Z,98004.59
2018-04-22T03:53:57.012Z,98004.94
2018-04-22T03:56:24.719Z,98003.99
2018-04-22T03:58:52.376Z,98001.70
2018-04-22T04:01:20.093Z,97999.61
2018-04-22T04:03:47.785Z,98004.67
2018-04-22T04:06:15.878Z,98001.30
2018-04-22T04:08:43.406Z,98001.37
2018-04-22T04:11:11.103Z,98007.54
2018-04-22T04:13:38.871Z,98007.95
2018-04-22T04:16:06.649Z,97999.78
2018-04-22T04:21:59.893Z,98004.20
2018-04-22T04:24:40.259Z,98005.56
2018-04-22T04:27:19.583Z,97996.30
2018-04-22T04:29:47.212Z,97995.80
2018-04-22T04:32:14.832Z,98002.48
2018-04-22T04:34:42.621Z,97996.84
2018-04-22T04:37:10.298Z,97995.09
2018-04-22T04:39:37.827Z,97993.41
2018-04-22T04:42:06.307Z,97994.21
2018-04-22T04:44:33.821Z,97994.45
2018-04-22T04:47:01.343Z,97993.23
2018-04-22T04:49:30.648Z,97996.64
2018-04-22T04:51:58.171Z,97990.17
2018-04-22T04:54:25.853Z,97993.48
2018-04-22T04:56:53.374Z,97983.72
2018-04-22T04:59:20.926Z,97998.69
2018-04-22T05:01:48.710Z,97991.12
2018-04-22T05:04:16.364Z,97983.65
2018-04-22T05:06:44.762Z,97991.83
2018-04-22T05:09:12.306Z,97987.98
2018-04-22T05:11:39.903Z,97988.83
2018-04-22T05:14:07.582Z,97987.97
2018-04-22T05:16:35.319Z,97988.66
2018-04-22T05:19:02.904Z,97987.89
2018-04-22T05:21:30.514Z,97987.75
2018-04-22T05:23:58.045Z,97991.30
2018-04-22T05:26:25.639Z,97990.34
2018-04-22T05:28:53.386Z,97987.41
2018-04-22T05:31:20.973Z,98000.25
2018-04-22T05:33:48.559Z,97996.59
2018-04-22T05:36:16.224Z,97998.16
2018-04-22T05:38:44.597Z,97996.59
2018-04-22T05:41:12.289Z,97999.84
2018-04-22T05:43:39.874Z,98000.06
2018-04-22T05:46:07.837Z,98004.34
2018-04-22T05:48:35.397Z,98004.70
2018-04-22T05:51:03.042Z,98003.18
2018-04-22T05:53:30.625Z,97997.75
2018-04-22T05:55:58.157Z,98001.58
2018-04-22T05:58:26.011Z,98008.34
2018-04-22T06:00:53.768Z,98011.94
2018-04-22T06:03:21.409Z,98008.66
2018-04-22T06:05:49.194Z,98002.59
2018-04-22T06:08:16.744Z,98001.39
2018-04-22T06:10:44.354Z,98004.93
2018-04-22T06:13:12.132Z,97999.67
2018-04-22T06:15:39.903Z,98000.02
2018-04-22T06:18:07.518Z,98006.15
2018-04-22T06:20:35.144Z,98006.20
2018-04-22T06:23:02.843Z,98009.72
2018-04-22T06:25:30.379Z,98001.72
2018-04-22T06:27:57.894Z,98005.42
2018-04-22T06:30:25.613Z,98006.06
2018-04-22T06:32:53.427Z,98005.09
2018-04-22T06:35:21.169Z,98005.95
2018-04-22T06:37:48.754Z,97999.07
2018-04-22T06:40:16.291Z,97996.97
2018-04-22T06:42:43.869Z,97991.67
2018-04-22T06:45:11.563Z,97989.16
2018-04-22T06:47:39.188Z,97999.22
2018-04-22T06:50:06.807Z,97990.41
2018-04-22T06:52:34.564Z,97995.45
2018-04-22T06:55:02.083Z,97993.34
2018-04-22T06:57:30.189Z,97992.68
2018-04-22T06:59:57.995Z,97993.43
2018-04-22T07:02:25.649Z,97990.55
2018-04-22T07:04:53.259Z,97987.19
2018-04-22T07:07:20.961Z,97983.05
2018-04-22T07:09:49.803Z,97984.76
2018-04-22T07:12:17.475Z,97983.43
2018-04-22T07:14:45.643Z,97982.40
2018-04-22T07:17:13.204Z,97975.83
2018-04-22T07:19:40.963Z,97986.02
2018-04-22T07:22:08.514Z,97980.56
2018-04-22T07:24:36.529Z,97992.30
2018-04-22T07:27:04.162Z,97985.20
2018-04-22T07:29:32.042Z,97986.21
2018-04-22T07:31:59.581Z,97978.95
2018-04-22T07:34:27.402Z,97986.55
2018-04-22T07:36:55.011Z,97989.17
2018-04-22T07:39:22.675Z,97994.01
2018-04-22T07:41:50.214Z,97994.84
2018-04-22T07:44:18.044Z,97988.66
2018-04-22T07:46:45.627Z,98000.41
2018-04-22T07:49:13.174Z,97997.60
2018-04-22T07:51:40.803Z,97994.84
2018-04-22T07:54:08.675Z,97994.42
2018-04-22T07:56:36.219Z,97996.92
2018-04-22T07:59:03.812Z,98000.59
2018-04-22T08:01:32.370Z,97990.83
2018-04-22T08:04:00.284Z,97988.42
2018-04-22T08:06:27.875Z,97991.36
2018-04-22T08:08:55.411Z,97999.35
2018-04-22T08:11:23.058Z,98000.12
2018-04-22T08:13:50.881Z,97995.64
2018-04-22T08:16:18.454Z,98002.50
2018-04-22T08:18:46.234Z,97999.70
2018-04-22T08:21:13.797Z,97999.04
2018-04-22T08:23:41.565Z,97997.53
2018-04-22T08:26:09.219Z,97999.27
2018-04-22T08:28:36.923Z,98002.97
2018-04-22T08:31:04.659Z,98001.02
2018-04-22T08:33:33.130Z,98009.06
2018-04-22T08:36:00.863Z,98013.86
2018-04-22T08:38:28.453Z,98010.94
2018-04-22T08:40:56.255Z,98014.65
2018-04-22T08:43:23.845Z,98007.66
2018-04-22T08:45:51.473Z,98012.45
2018-04-22T08:48:19.134Z,98003.26
2018-04-22T08:50:46.898Z,98014.45
2018-04-22T08:53:14.444Z,98009.25
2018-04-22T08:55:42.155Z,98001.79
2018-04-22T08:58:09.713Z,98001.87
2018-04-22T09:00:37.391Z,98006.02
2018-04-22T09:03:04.945Z,97995.27
2018-04-22T09:05:32.756Z,97998.58
2018-04-22T09:08:00.534Z,97995.45
2018-04-22T09:10:28.103Z,98004.92
2018-04-22T09:12:55.694Z,98002.84
2018-04-22T09:15:23.560Z,98000.30
2018-04-22T09:17:51.140Z,97996.58
2018-04-22T09:20:19.454Z,97995.70
2018-04-22T09:22:47.295Z,97991.58
2018-04-22T09:25:15.296Z,97984.53
2018-04-22T09:27:42.915Z,97979.86
2018-04-22T09:30:10.484Z,97984.19
2018-04-22T09:32:38.113Z,97981.79
2018-04-22T09:35:05.876Z,97984.69
2018-04-22T09:37:33.490Z,97973.02
2018-04-22T09:40:01.161Z,97978.72
2018-04-22T09:42:28.814Z,97974.50
2018-04-22T09:44:56.428Z,97974.95
2018-04-22T09:47:23.973Z,97970.06
2018-04-22T09:49:51.533Z,97967.21
2018-04-22T09:52:19.309Z,97964.40
2018-04-22T09:54:46.856Z,97963.17
2018-04-22T09:57:14.456Z,97965.70
2018-04-22T09:59:42.275Z,97957.11
2018-04-22T10:02:15.819Z,97957.02
2018-04-22T10:04:47.530Z,97951.62
2018-04-22T10:07:15.093Z,97947.20
2018-04-22T10:09:42.878Z,97952.87
2018-04-22T10:12:10.475Z,97952.84
2018-04-22T10:14:38.164Z,97951.16
2018-04-22T10:17:05.788Z,97945.93
2018-04-22T10:19:33.325Z,97944.83
2018-04-22T10:22:01.070Z,97927.94
2018-04-22T10:24:28.660Z,97924.38
2018-04-22T10:26:56.436Z,97922.32
2018-04-22T10:29:24.031Z,97923.14
2018-04-22T10:31:52.136Z,97919.98
2018-04-22T10:34:19.672Z,97913.53
2018-04-22T10:36:47.419Z,97906.42
2018-04-22T10:39:15.133Z,97908.60
2018-04-22T10:41:42.753Z,97899.30
2018-04-22T10:44:10.441Z,97903.20
2018-04-22T10:46:38.638Z,97894.81
2018-04-22T10:49:06.509Z,97897.23
2018-04-22T10:51:35.110Z,97883.14
2018-04-22T10:54:02.675Z,97891.18
2018-04-22T10:56:30.208Z,97876.75
2018-04-22T10:58:57.940Z,97871.34
2018-04-22T11:01:26.169Z,97873.95
2018-04-22T11:03:53.930Z,97870.30
2018-04-22T11:06:21.609Z,97860.41
2018-04-22T11:08:49.131Z,97868.56
2018-04-22T11:11:16.845Z,97859.75
2018-04-22T11:13:44.455Z,97860.61
2018-04-22T11:16:11.977Z,97858.86
2018-04-22T11:18:39.668Z,97859.75
2018-04-22T11:21:07.217Z,97852.83
2018-04-22T11:23:35.140Z,97857.94
2018-04-22T11:26:02.709Z,97850.41
2018-04-22T11:28:30.327Z,97847.92
2018-04-22T11:30:58.104Z,97846.52
2018-04-22T11:33:25.811Z,97843.30
2018-04-22T11:35:53.845Z,97839.72
2018-04-22T11:38:21.722Z,97831.31
2018-04-22T11:40:49.420Z,97825.41
2018-04-22T11:43:17.145Z,97819.86
2018-04-22T11:45:44.957Z,97816.84
2018-04-22T11:48:12.771Z,97822.18
2018-04-22T11:50:40.381Z,97810.61
2018-04-22T11:53:07.930Z,97825.66
2018-04-22T11:55:35.734Z,97829.02
2018-04-22T11:58:03.402Z,97836.77
2018-04-22T12:00:31.050Z,97837.75
2018-04-22T12:02:58.700Z,97847.71
2018-04-22T12:05:26.274Z,97842.23
2018-04-22T12:07:54.005Z,97841.73
2018-04-22T12:10:21.620Z,97848.48
2018-04-22T12:12:49.179Z,97853.29
2018-04-22T12:15:16.816Z,97850.21
2018-04-22T12:17:44.417Z,97844.84
2018-04-22T12:20:12.659Z,97844.37
2018-04-22T12:22:40.376Z,97836.45
2018-04-22T12:25:08.008Z,97839.66
2018-04-22T12:27:35.568Z,97832.25
2018-04-22T12:30:03.192Z,97834.00
2018-04-22T12:32:30.892Z,97831.61
2018-04-22T12:34:58.651Z,97829.53
2018-04-22T12:37:26.295Z,97825.47
2018-04-22T12:39:53.941Z,97820.22
2018-04-22T12:42:21.482Z,97819.67
2018-04-22T12:44:49.356Z,97808.44
2018-04-22T12:47:16.890Z,97808.28
2018-04-22T12:49:44.673Z,97807.14
2018-04-22T12:52:12.230Z,97802.72
2018-04-22T12:54:39.772Z,97799.11
2018-04-22T12:57:07.390Z,97799.38
2018-04-22T12:59:34.942Z,97799.41
2018-04-22T13:02:02.781Z,97797.02
2018-04-22T13:04:30.692Z,97789.92
2018-04-22T13:06:58.482Z,97786.77
2018-04-22T13:09:26.052Z,97777.48
2018-04-22T13:11:53.601Z,97775.48
2018-04-22T13:14:21.182Z,97774.87
2018-04-22T13:16:48.762Z,97772.72
2018-04-22T13:19:16.362Z,97775.23
2018-04-22T13:21:44.007Z,97776.03
2018-04-22T13:24:11.987Z,97770.78
2018-04-22T13:26:39.585Z,97766.38
2018-04-22T13:29:07.343Z,97758.44
2018-04-22T13:31:36.127Z,97761.80
2018-04-22T13:34:04.220Z,97756.27
2018-04-22T13:36:31.847Z,97760.09
2018-04-22T13:38:59.430Z,97755.64
2018-04-22T13:41:26.966Z,97747.92
2018-04-22T13:43:54.517Z,97746.41
2018-04-22T13:46:22.501Z,97746.14
2018-04-22T13:48:50.157Z,97744.52
2018-04-22T13:51:18.140Z,97746.95
2018-04-22T13:53:46.027Z,97739.41
2018-04-22T13:56:13.827Z,97742.73
2018-04-22T13:58:41.869Z,97735.78
2018-04-22T14:01:09.692Z,97734.47
2018-04-22T14:03:37.322Z,97730.30
2018-04-22T14:06:04.981Z,97723.20
2018-04-22T14:08:32.544Z,97722.33
2018-04-22T14:11:00.180Z,97716.97
2018-04-22T14:13:27.714Z,97706.98
2018-04-22T14:15:55.391Z,97706.23
2018-04-22T14:18:23.014Z,97697.77
2018-04-22T14:20:50.650Z,97693.02
2018-04-22T14:23:18.414Z,97687.48
2018-04-22T14:25:45.995Z,97692.45
2018-04-22T14:28:13.755Z,97690.33
2018-04-22T14:30:41.418Z,97689.70
2018-04-22T14:33:08.967Z,97692.89
2018-04-22T14:35:36.788Z,97689.06
2018-04-22T14:38:05.470Z,97687.02
2018-04-22T14:40:33.080Z,97687.56
2018-04-22T14:43:00.793Z,97682.24
2018-04-22T14:45:40.377Z,97682.27
2018-04-22T14:48:07.919Z,97676.29
2018-04-22T14:50:35.824Z,97677.14
2018-04-22T14:53:03.388Z,97672.95
2018-04-22T14:55:30.931Z,97678.80
2018-04-22T14:57:58.460Z,97676.86
2018-04-22T15:00:26.165Z,97681.38
2018-04-22T15:02:53.812Z,97677.50
2018-04-22T15:05:21.842Z,97678.97
2018-04-22T15:07:49.485Z,97676.72
2018-04-22T15:10:17.037Z,97677.17
2018-04-22T15:12:45.523Z,97679.30
2018-04-22T15:15:13.156Z,97682.05
2018-04-22T15:17:41.977Z,97686.28
2018-04-22T15:20:10.056Z,97686.44
2018-04-22T15:22:37.648Z,97685.16
2018-04-22T15:25:05.567Z,97683.52
2018-04-22T15:27:33.055Z,97679.21
2018-04-22T15:30:00.620Z,97681.68
2018-04-22T15:32:28.263Z,97675.91
2018-04-22T15:34:55.821Z,97677.78
2018-04-22T15:37:23.555Z,97676.80
2018-04-22T15:39:51.421Z,97672.85
2018-04-22T15:42:19.063Z,97665.34
2018-04-22T15:44:46.693Z,97666.52
2018-04-22T15:47:14.242Z,97663.00
2018-04-22T15:49:41.998Z,97664.42
2018-04-22T15:52:09.619Z,97660.02
2018-04-22T15:54:37.383Z,97665.59
2018-04-22T15:57:05.009Z,97658.19
2018-04-22T15:59:32.938Z,97655.88
2018-04-22T16:02:00.791Z,97647.09
2018-04-22T16:04:28.626Z,97653.63
2018-04-22T16:06:56.270Z,97651.63
2018-04-22T16:09:23.901Z,97651.28
2018-04-22T16:11:51.438Z,97649.68
2018-04-22T16:14:19.185Z,97653.16
2018-04-22T16:16:46.786Z,97647.09
2018-04-22T16:19:14.382Z,97644.18
2018-04-22T16:21:41.926Z,97646.40
2018-04-22T16:24:09.525Z,97648.38
2018-04-22T16:26:37.230Z,97643.34
2018-04-22T16:29:05.540Z,97647.70
2018-04-22T16:31:33.591Z,97639.02
2018-04-22T16:34:01.149Z,97645.30
2018-04-22T16:36:28.812Z,97641.88
2018-04-22T16:38:56.413Z,97641.36
2018-04-22T16:41:24.030Z,97640.83
2018-04-22T16:43:51.607Z,97640.95
2018-04-22T16:46:20.057Z,97639.72
2018-04-22T16:48:47.644Z,97641.67
2018-04-22T16:51:15.307Z,97637.73
2018-04-22T16:53:43.143Z,97636.56
2018-04-22T16:56:10.687Z,97640.14
2018-04-22T16:58:38.404Z,97638.30
2018-04-22T17:01:06.027Z,97634.96
2018-04-22T17:03:33.832Z,97634.12
2018-04-22T17:06:01.572Z,97632.14
2018-04-22T17:08:29.431Z,97629.33
2018-04-22T17:10:57.350Z,97632.94
2018-04-22T17:13:24.970Z,97634.63
2018-04-22T17:15:52.511Z,97643.36
2018-04-22T17:18:20.137Z,97638.17
2018-04-22T17:20:47.862Z,97641.47
2018-04-22T17:23:15.542Z,97643.78
2018-04-22T17:25:43.262Z,97647.53
2018-04-22T17:28:10.886Z,97645.92
2018-04-22T17:30:38.632Z,97651.51
2018-04-22T17:33:06.282Z,97652.73
2018-04-22T17:35:33.877Z,97658.33
2018-04-22T17:38:01.422Z,97652.08
2018-04-22T17:40:29.007Z,97654.09
2018-04-22T17:42:56.602Z,97655.67
2018-04-22T17:45:24.201Z,97666.91
2018-04-22T17:47:51.728Z,97659.34
2018-04-22T17:50:19.370Z,97666.06
2018-04-22T17:52:46.907Z,97663.44
2018-04-22T17:55:14.601Z,97671.07
2018-04-22T17:57:42.810Z,97675.11
2018-04-22T18:00:10.351Z,97670.50
2018-04-22T18:02:37.993Z,97673.03
2018-04-22T18:05:05.846Z,97672.86
2018-04-22T18:07:33.829Z,97677.61
2018-04-22T18:10:01.546Z,97679.41
2018-04-22T18:12:30.111Z,97675.97
2018-04-22T18:14:57.994Z,97677.05
2018-04-22T18:17:25.641Z,97684.00
2018-04-22T18:19:53.626Z,97687.72
2018-04-22T18:22:21.319Z,97687.92
2018-04-22T18:24:49.006Z,97689.70
2018-04-22T18:27:16.688Z,97697.41
2018-04-22T18:29:44.596Z,97703.08
2018-04-22T18:32:12.259Z,97708.91
2018-04-22T18:34:39.837Z,97707.13
2018-04-22T18:37:07.474Z,97709.10
2018-04-22T18:39:35.224Z,97711.59
2018-04-22T18:42:02.762Z,97715.96
2018-04-22T18:44:30.320Z,97714.77
2018-04-22T18:46:58.034Z,97728.46
2018-04-22T18:51:00.764Z,97732.64
2018-04-22T18:53:28.287Z,97741.12
2018-04-22T18:55:56.293Z,97747.47
2018-04-22T19:00:50.717Z,97748.08
2018-04-22T19:03:18.278Z,97756.05
2018-04-22T19:05:45.943Z,97755.99
2018-04-22T19:08:13.502Z,97756.44
2018-04-22T19:10:41.147Z,97760.16
2018-04-22T19:13:09.679Z,97759.59
2018-04-22T19:15:37.389Z,97769.59
2018-04-22T19:18:05.099Z,97768.10
2018-04-22T19:20:32.763Z,97781.66
2018-04-22T19:23:00.390Z,97781.55
2018-04-22T19:25:28.114Z,97786.14
2018-04-22T19:27:55.924Z,97790.17
2018-04-22T19:30:23.914Z,97789.05
2018-04-22T19:32:51.734Z,97805.89
2018-04-22T19:35:19.464Z,97797.08
2018-04-22T19:37:47.084Z,97806.37
2018-04-22T19:40:14.801Z,97801.02
2018-04-22T19:42:43.060Z,97807.98
2018-04-22T19:45:10.656Z,97813.80
2018-04-22T19:47:38.341Z,97814.59
2018-04-22T19:50:06.026Z,97809.70
2018-04-22T19:52:33.912Z,97818.47
2018-04-22T19:55:01.495Z,97816.14
2018-04-22T19:57:29.131Z,97824.42
2018-04-22T19:59:56.998Z,97824.22
2018-04-22T20:02:24.653Z,97817.08
2018-04-22T20:04:52.550Z,97817.34
2018-04-22T20:07:20.290Z,97820.94
2018-04-22T20:09:48.022Z,97813.67
2018-04-22T20:12:15.763Z,97818.50
2018-04-22T20:14:43.600Z,97818.34
2018-04-22T20:17:12.012Z,97833.09
2018-04-22T20:19:39.554Z,97829.20
2018-04-22T20:22:07.148Z,97833.11
2018-04-22T20:24:34.749Z,97833.84
2018-04-22T20:27:02.377Z,97834.86
2018-04-22T20:29:29.965Z,97837.28
2018-04-22T20:31:57.583Z,97845.11
2018-04-22T20:34:25.222Z,97845.57
2018-04-22T20:36:52.816Z,97842.08
2018-04-22T20:39:20.614Z,97847.48
2018-04-22T20:41:48.338Z,97848.64
2018-04-22T20:44:15.883Z,97851.63
2018-04-22T20:46:44.042Z,97852.58
2018-04-22T20:49:11.627Z,97852.02
2018-04-22T20:51:40.129Z,97857.00
2018-04-22T20:54:07.815Z,97860.29
2018-04-22T20:56:35.493Z,97864.38
2018-04-22T20:59:03.054Z,97865.28
2018-04-22T21:01:30.584Z,97863.03
2018-04-22T21:03:58.375Z,97867.92
2018-04-22T21:06:26.102Z,97868.13
2018-04-22T21:08:53.750Z,97870.09
2018-04-22T21:11:21.484Z,97864.47
2018-04-22T21:13:49.048Z,97863.40
2018-04-22T21:16:16.709Z,97869.50
2018-04-22T21:18:44.262Z,97875.64
2018-04-22T21:21:11.774Z,97867.10
2018-04-22T21:23:39.398Z,97875.73
2018-04-22T21:26:06.965Z,97875.27
2018-04-22T21:28:34.634Z,97874.41
2018-04-22T21:35:01.753Z,97885.27
2018-04-22T21:37:29.363Z,97878.41
2018-04-22T21:39:57.161Z,97879.36
2018-04-22T21:42:24.770Z,97879.08
2018-04-22T21:44:52.387Z,97877.13
2018-04-22T21:47:20.236Z,97884.31
2018-04-22T21:49:47.876Z,97892.53
2018-04-22T21:52:15.433Z,97891.74
2018-04-22T21:54:42.977Z,97891.72
2018-04-22T21:57:10.535Z,97892.63
2018-04-22T21:59:38.351Z,97903.28
2018-04-22T22:02:06.165Z,97903.55
2018-04-22T22:04:33.721Z,97904.11
2018-04-22T22:07:01.396Z,97908.58
2018-04-22T22:09:29.002Z,97902.25
2018-04-22T22:11:56.758Z,97907.72
2018-04-22T22:14:24.600Z,97916.88
2018-04-22T22:16:52.178Z,97912.23
2018-04-22T22:19:19.806Z,97912.73
2018-04-22T22:21:47.398Z,97914.47
2018-04-22T22:24:14.924Z,97916.34
2018-04-22T22:26:42.566Z,97914.63
2018-04-22T22:29:10.120Z,97917.72
2018-04-22T22:31:37.740Z,97920.44
2018-04-22T22:34:05.379Z,97923.14
2018-04-22T22:36:33.070Z,97925.32
2018-04-22T22:39:00.701Z,97927.69
2018-04-22T22:41:28.613Z,97927.19
2018-04-22T22:43:56.115Z,97927.95
2018-04-22T22:46:24.067Z,97929.78
2018-04-22T22:48:51.676Z,97931.63
2018-04-22T22:51:19.459Z,97931.80
2018-04-22T22:53:47.139Z,97935.14
2018-04-22T22:56:15.194Z,97934.41
2018-04-22T22:58:43.455Z,97933.60
2018-04-22T23:01:11.010Z,97928.89
2018-04-22T23:03:38.575Z,97943.61
2018-04-22T23:06:06.193Z,97941.42
2018-04-22T23:08:33.825Z,97948.05
2018-04-22T23:11:01.694Z,97939.44
2018-04-22T23:13:29.256Z,97938.73
2018-04-22T23:15:56.900Z,97946.21
2018-04-22T23:18:24.533Z,97937.90
2018-04-22T23:20:52.053Z,97932.91
2018-04-22T23:23:19.573Z,97935.14
2018-04-22T23:25:47.345Z,97935.45
2018-04-22T23:28:15.075Z,97937.48
2018-04-22T23:30:42.681Z,97935.87
2018-04-22T23:33:10.339Z,97933.86
2018-04-22T23:35:37.955Z,97937.72
2018-04-22T23:38:05.780Z,97933.53
2018-04-22T23:40:33.328Z,97938.20
2018-04-22T23:43:01.087Z,97933.63
2018-04-22T23:45:29.366Z,97935.78
2018-04-22T23:47:56.955Z,97930.42
2018-04-22T23:50:24.474Z,97928.27
2018-04-22T23:52:52.680Z,97927.34
2018-04-22T23:55:20.233Z,97931.09
2018-04-22T23:57:47.865Z,97927.17
